createdAt,value
2018-11-27T00:00:33.629Z,31.20
2018-11-27T00:03:08.100Z,28.53
2018-11-27T00:05:42.096Z,34.60
2018-11-27T00:08:16.105Z,37.53
2018-11-27T00:10:49.994Z,30.97
2018-11-27T00:13:23.820Z,36.40
2018-11-27T00:15:57.792Z,28.43
2018-11-27T00:18:32.755Z,35.80
2018-11-27T00:21:07.760Z,32.20
2018-11-27T00:23:41.690Z,34.00
2018-11-27T00:26:15.609Z,31.93
2018-11-27T00:28:56.000Z,33.30
2018-11-27T00:31:30.281Z,31.07
2018-11-27T00:34:04.243Z,34.53
2018-11-27T00:36:38.081Z,31.30
2018-11-27T00:39:12.499Z,33.20
2018-11-27T00:41:47.341Z,34.73
2018-11-27T00:44:21.540Z,34.20
2018-11-27T00:46:55.416Z,30.87
2018-11-27T00:49:29.560Z,38.27
2018-11-27T00:52:03.883Z,31.40
2018-11-27T00:54:38.184Z,29.03
2018-11-27T00:57:12.973Z,30.63
2018-11-27T00:59:47.291Z,46.03
2018-11-27T01:02:21.942Z,33.33
2018-11-27T01:04:56.177Z,38.53
2018-11-27T01:07:30.282Z,34.80
2018-11-27T01:10:07.128Z,37.00
2018-11-27T01:12:41.852Z,39.70
2018-11-27T01:15:17.006Z,36.83
2018-11-27T01:17:51.721Z,37.83
2018-11-27T01:20:26.161Z,34.87
2018-11-27T01:23:00.163Z,44.27
2018-11-27T01:25:34.014Z,37.67
2018-11-27T01:28:07.968Z,37.43
2018-11-27T01:30:41.959Z,40.07
2018-11-27T01:33:15.964Z,35.83
2018-11-27T01:35:49.963Z,42.50
2018-11-27T01:38:24.004Z,43.10
2018-11-27T01:40:57.875Z,41.60
2018-11-27T01:43:31.808Z,30.10
2018-11-27T01:46:05.859Z,43.47
2018-11-27T01:48:39.789Z,36.67
2018-11-27T01:51:13.881Z,42.53
2018-11-27T01:53:47.796Z,41.33
2018-11-27T01:56:21.842Z,46.23
2018-11-27T01:58:55.655Z,41.70
2018-11-27T02:01:29.555Z,38.80
2018-11-27T02:04:03.545Z,40.97
2018-11-27T02:06:37.598Z,37.83
2018-11-27T02:09:11.591Z,44.07
2018-11-27T02:11:45.675Z,45.67
2018-11-27T02:14:19.661Z,41.47
2018-11-27T02:16:53.560Z,37.30
2018-11-27T02:19:27.424Z,37.93
2018-11-27T02:22:01.493Z,38.70
2018-11-27T02:24:35.356Z,47.67
2018-11-27T02:27:09.239Z,37.20
2018-11-27T02:29:43.887Z,35.10
2018-11-27T02:32:17.747Z,37.47
2018-11-27T02:34:52.903Z,46.87
2018-11-27T02:37:27.896Z,38.23
2018-11-27T02:40:02.195Z,46.17
2018-11-27T02:42:36.529Z,40.47
2018-11-27T02:45:11.331Z,39.73
2018-11-27T02:47:46.444Z,45.90
2018-11-27T02:50:21.486Z,43.03
2018-11-27T02:52:55.524Z,38.40
2018-11-27T02:55:29.619Z,41.23
2018-11-27T02:58:08.801Z,35.77
2018-11-27T03:00:42.842Z,40.93
2018-11-27T03:03:17.154Z,43.77
2018-11-27T03:05:51.018Z,46.83
2018-11-27T03:08:25.192Z,35.67
2018-11-27T03:10:59.216Z,40.30
2018-11-27T03:13:33.432Z,38.47
2018-11-27T03:16:07.550Z,40.87
2018-11-27T03:18:41.497Z,39.00
2018-11-27T03:21:15.417Z,39.50
2018-11-27T03:23:49.430Z,41.00
2018-11-27T03:26:23.417Z,43.57
2018-11-27T03:28:57.588Z,41.70
2018-11-27T03:31:31.578Z,41.40
2018-11-27T03:34:06.016Z,40.57
2018-11-27T03:36:40.231Z,33.93
2018-11-27T03:39:14.657Z,41.07
2018-11-27T03:41:48.588Z,42.87
2018-11-27T03:44:22.535Z,35.80
2018-11-27T03:46:56.381Z,34.87
2018-11-27T03:49:31.433Z,37.57
2018-11-27T03:52:05.422Z,39.10
2018-11-27T03:54:39.430Z,37.03
2018-11-27T03:57:13.417Z,46.97
2018-11-27T03:59:49.472Z,38.10
2018-11-27T04:02:23.527Z,43.77
2018-11-27T04:04:57.730Z,35.63
2018-11-27T04:07:31.595Z,35.53
2018-11-27T04:10:08.959Z,38.53
2018-11-27T04:12:42.984Z,42.60
2018-11-27T04:15:16.976Z,42.53
2018-11-27T04:17:50.936Z,40.77
2018-11-27T04:20:24.887Z,41.40
2018-11-27T04:22:58.844Z,37.57
2018-11-27T04:25:32.791Z,37.37
2018-11-27T04:28:07.218Z,35.43
2018-11-27T04:30:41.247Z,38.23
2018-11-27T04:33:15.222Z,41.03
2018-11-27T04:35:49.328Z,35.63
2018-11-27T04:38:23.358Z,41.53
2018-11-27T04:40:57.292Z,40.10
2018-11-27T04:43:31.222Z,36.40
2018-11-27T04:46:05.132Z,42.40
2018-11-27T04:48:39.064Z,47.23
2018-11-27T04:51:13.000Z,50.43
2018-11-27T04:53:46.916Z,42.60
2018-11-27T04:56:20.907Z,45.47
2018-11-27T04:58:54.869Z,38.33
2018-11-27T05:01:28.924Z,50.90
2018-11-27T05:04:02.941Z,47.83
2018-11-27T05:06:36.941Z,40.30
2018-11-27T05:09:10.975Z,44.67
2018-11-27T05:11:44.997Z,42.40
2018-11-27T05:14:18.994Z,50.90
2018-11-27T05:16:52.986Z,47.63
2018-11-27T05:19:26.920Z,47.73
2018-11-27T05:22:00.854Z,40.30
2018-11-27T05:24:34.861Z,44.73
2018-11-27T05:27:08.759Z,45.23
2018-11-27T05:29:42.652Z,38.67
2018-11-27T05:32:16.541Z,51.73
2018-11-27T05:34:50.725Z,43.00
2018-11-27T05:37:24.612Z,39.27
2018-11-27T05:39:58.660Z,46.23
2018-11-27T05:42:32.631Z,41.00
2018-11-27T05:45:08.463Z,39.13
2018-11-27T05:47:42.560Z,44.90
2018-11-27T05:50:17.131Z,38.57
2018-11-27T05:52:51.124Z,45.53
2018-11-27T05:55:25.017Z,45.30
2018-11-27T05:57:59.073Z,44.23
2018-11-27T06:00:33.001Z,42.57
2018-11-27T06:03:08.207Z,36.83
2018-11-27T06:05:42.298Z,51.43
2018-11-27T06:08:16.372Z,44.30
2018-11-27T06:10:50.462Z,39.03
2018-11-27T06:13:24.426Z,44.07
2018-11-27T06:15:58.402Z,48.13
2018-11-27T06:18:32.401Z,48.43
2018-11-27T06:21:06.534Z,42.80
2018-11-27T06:23:40.656Z,50.60
2018-11-27T06:26:14.825Z,44.20
2018-11-27T06:28:48.758Z,49.87
2018-11-27T06:31:22.749Z,49.33
2018-11-27T06:33:56.758Z,47.00
2018-11-27T06:36:30.866Z,51.67
2018-11-27T06:39:06.017Z,48.43
2018-11-27T06:41:40.104Z,57.90
2018-11-27T06:44:14.816Z,46.83
2018-11-27T06:46:48.766Z,39.60
2018-11-27T06:49:23.435Z,42.50
2018-11-27T06:51:57.861Z,53.27
2018-11-27T06:54:31.938Z,45.43
2018-11-27T06:57:06.182Z,54.13
2018-11-27T06:59:40.116Z,46.70
2018-11-27T07:02:14.235Z,42.17
2018-11-27T07:04:48.120Z,44.17
2018-11-27T07:07:22.451Z,46.13
2018-11-27T07:09:56.505Z,50.83
2018-11-27T07:12:30.684Z,45.77
2018-11-27T07:15:04.868Z,45.17
2018-11-27T07:17:38.913Z,49.80
2018-11-27T07:20:13.121Z,52.27
2018-11-27T07:22:47.028Z,55.73
2018-11-27T07:25:21.167Z,51.50
2018-11-27T07:27:55.223Z,52.17
2018-11-27T07:30:29.304Z,51.97
2018-11-27T07:33:03.479Z,51.80
2018-11-27T07:35:37.511Z,50.33
2018-11-27T07:38:12.288Z,52.57
2018-11-27T07:40:46.477Z,50.23
2018-11-27T07:43:20.588Z,49.20
2018-11-27T07:45:55.351Z,46.17
2018-11-27T07:48:29.044Z,42.97
2018-11-27T07:51:03.065Z,45.90
2018-11-27T07:53:37.119Z,52.67
2018-11-27T07:56:11.165Z,43.80
2018-11-27T07:58:45.250Z,48.13
2018-11-27T08:01:19.334Z,44.33
2018-11-27T08:03:53.527Z,49.53
2018-11-27T08:06:27.647Z,46.50
2018-11-27T08:09:02.248Z,53.37
2018-11-27T08:11:36.255Z,53.73
2018-11-27T08:14:10.427Z,46.10
2018-11-27T08:19:25.133Z,39.33
2018-11-27T08:22:01.311Z,44.70
2018-11-27T08:24:35.326Z,45.67
2018-11-27T08:27:09.684Z,40.47
2018-11-27T08:29:43.994Z,44.77
2018-11-27T08:32:18.175Z,43.20
2018-11-27T08:34:53.593Z,36.60
2018-11-27T08:37:27.662Z,37.87
2018-11-27T08:40:01.679Z,42.70
2018-11-27T08:42:35.650Z,47.00
2018-11-27T08:45:11.329Z,43.87
2018-11-27T08:47:45.690Z,47.43
2018-11-27T08:50:22.518Z,39.27
2018-11-27T08:53:00.421Z,45.10
2018-11-27T08:55:37.203Z,48.43
2018-11-27T08:58:25.742Z,44.27
2018-11-27T09:00:59.868Z,45.80
2018-11-27T09:03:33.780Z,45.43
2018-11-27T09:06:08.057Z,40.73
2018-11-27T09:08:42.317Z,36.57
2018-11-27T09:11:16.428Z,41.77
2018-11-27T09:13:50.585Z,35.00
2018-11-27T09:16:24.788Z,44.27
2018-11-27T09:18:58.985Z,41.17
2018-11-27T09:21:33.072Z,39.93
2018-11-27T09:24:07.131Z,46.93
2018-11-27T09:26:41.249Z,37.40
2018-11-27T09:29:15.293Z,34.50
2018-11-27T09:31:49.393Z,34.53
2018-11-27T09:34:24.206Z,33.90
2018-11-27T09:36:58.536Z,38.10
2018-11-27T09:39:32.745Z,37.50
2018-11-27T09:42:06.972Z,40.97
2018-11-27T09:44:41.084Z,42.80
2018-11-27T09:47:15.102Z,38.77
2018-11-27T09:49:49.218Z,36.17
2018-11-27T09:52:23.322Z,37.70
2018-11-27T09:54:57.468Z,43.33
2018-11-27T09:57:31.995Z,41.27
2018-11-27T10:00:36.731Z,50.73
2018-11-27T10:03:15.467Z,43.90
2018-11-27T10:05:49.625Z,38.13
2018-11-27T10:08:23.847Z,50.10
2018-11-27T10:10:58.074Z,44.90
2018-11-27T10:13:32.097Z,37.87
2018-11-27T10:16:06.158Z,37.87
2018-11-27T10:18:40.292Z,42.33
2018-11-27T10:21:14.386Z,38.03
2018-11-27T10:23:48.372Z,33.67
2018-11-27T10:26:22.427Z,46.37
2018-11-27T10:28:56.531Z,45.07
2018-11-27T10:31:30.754Z,43.57
2018-11-27T10:34:05.650Z,46.13
2018-11-27T10:36:39.827Z,54.57
2018-11-27T10:39:14.078Z,46.27
2018-11-27T10:41:48.161Z,48.17
2018-11-27T10:44:22.940Z,45.03
2018-11-27T10:46:57.132Z,52.57
2018-11-27T10:49:31.733Z,55.53
2018-11-27T10:52:06.205Z,53.13
2018-11-27T10:54:40.260Z,56.13
2018-11-27T10:57:14.416Z,56.83
2018-11-27T10:59:48.561Z,56.40
2018-11-27T11:02:28.117Z,54.17
2018-11-27T11:05:03.039Z,57.57
2018-11-27T11:07:37.833Z,61.70
2018-11-27T11:10:12.168Z,63.30
2018-11-27T11:12:46.312Z,56.47
2018-11-27T11:15:20.991Z,53.93
2018-11-27T11:17:55.194Z,66.97
2018-11-27T11:20:29.656Z,69.63
2018-11-27T11:23:03.714Z,57.13
2018-11-27T11:25:37.972Z,67.43
2018-11-27T11:28:12.854Z,83.60
2018-11-27T11:30:47.721Z,70.40
2018-11-27T11:33:23.474Z,73.47
2018-11-27T11:35:58.092Z,67.10
2018-11-27T11:38:33.202Z,81.80
2018-11-27T11:41:07.404Z,65.80
2018-11-27T11:43:42.059Z,56.57
2018-11-27T11:46:16.921Z,62.63
2018-11-27T11:48:52.428Z,66.10
2018-11-27T11:51:26.882Z,53.83
2018-11-27T11:54:01.516Z,62.43
2018-11-27T11:56:35.752Z,57.77
2018-11-27T11:59:10.010Z,62.07
2018-11-27T12:01:44.299Z,57.23
2018-11-27T12:04:18.387Z,59.60
2018-11-27T12:06:52.644Z,56.90
2018-11-27T12:09:26.898Z,60.83
2018-11-27T12:12:01.734Z,64.60
2018-11-27T12:14:36.021Z,54.60
2018-11-27T12:17:10.606Z,60.63
2018-11-27T12:19:44.499Z,58.83
2018-11-27T12:22:19.864Z,64.63
2018-11-27T12:24:54.029Z,67.70
2018-11-27T12:27:28.702Z,54.90
2018-11-27T12:30:02.771Z,66.30
2018-11-27T12:32:36.684Z,55.37
2018-11-27T12:35:11.256Z,63.20
2018-11-27T12:37:45.336Z,73.10
2018-11-27T12:40:20.221Z,55.57
2018-11-27T12:42:54.802Z,54.53
2018-11-27T12:45:30.181Z,56.80
2018-11-27T12:48:04.475Z,58.13
2018-11-27T12:50:42.996Z,70.70
2018-11-27T12:53:17.610Z,71.43
2018-11-27T12:55:51.605Z,69.53
2018-11-27T12:58:25.801Z,60.13
2018-11-27T13:00:59.787Z,66.43
2018-11-27T13:03:33.820Z,73.37
2018-11-27T13:06:07.817Z,68.10
2018-11-27T13:08:45.863Z,66.27
2018-11-27T13:11:19.936Z,75.27
2018-11-27T13:13:53.973Z,77.73
2018-11-27T13:16:27.932Z,79.57
2018-11-27T13:19:01.882Z,62.53
2018-11-27T13:21:35.837Z,74.43
2018-11-27T13:24:09.792Z,74.07
2018-11-27T13:26:43.956Z,61.27
2018-11-27T13:29:18.055Z,58.27
2018-11-27T13:31:52.170Z,57.20
2018-11-27T13:34:26.064Z,62.60
2018-11-27T13:37:00.095Z,70.00
2018-11-27T13:39:36.696Z,55.20
2018-11-27T13:42:10.724Z,65.23
2018-11-27T13:44:44.916Z,60.20
2018-11-27T13:47:19.091Z,55.13
2018-11-27T13:49:53.163Z,62.33
2018-11-27T13:52:27.238Z,57.30
2018-11-27T13:55:01.425Z,60.10
2018-11-27T13:57:35.456Z,56.77
2018-11-27T14:00:10.367Z,62.03
2018-11-27T14:02:46.381Z,62.63
2018-11-27T14:05:21.191Z,58.57
2018-11-27T14:07:55.329Z,63.77
2018-11-27T14:10:29.344Z,59.37
2018-11-27T14:13:03.559Z,60.37
2018-11-27T14:15:38.003Z,62.90
2018-11-27T14:18:12.111Z,57.70
2018-11-27T14:20:46.225Z,56.60
2018-11-27T14:23:20.509Z,55.20
2018-11-27T14:25:54.656Z,69.03
2018-11-27T14:28:29.167Z,60.53
2018-11-27T14:31:03.678Z,59.13
2018-11-27T14:33:37.769Z,47.43
2018-11-27T14:36:11.953Z,58.40
2018-11-27T14:38:46.683Z,54.67
2018-11-27T14:41:20.841Z,44.23
2018-11-27T14:43:54.956Z,47.53
2018-11-27T14:46:29.768Z,43.23
2018-11-27T14:49:04.031Z,41.80
2018-11-27T14:51:38.554Z,42.70
2018-11-27T14:54:13.782Z,38.73
2018-11-27T14:56:48.131Z,34.50
2018-11-27T14:59:22.264Z,39.83
2018-11-27T15:01:57.518Z,44.00
2018-11-27T15:04:32.218Z,39.07
2018-11-27T15:07:09.640Z,31.70
2018-11-27T15:09:45.050Z,36.20
2018-11-27T15:12:21.517Z,30.67
2018-11-27T15:15:04.561Z,31.77
2018-11-27T15:17:41.314Z,36.53
2018-11-27T21:21:05.323Z,28.77
2018-11-27T21:23:40.500Z,34.50
2018-11-27T21:26:15.415Z,31.50
2018-11-27T21:28:51.312Z,32.70
2018-11-27T21:31:26.076Z,27.10
2018-11-27T21:34:06.133Z,26.83
2018-11-27T21:36:41.428Z,24.40
2018-11-27T21:39:16.656Z,25.80
2018-11-27T21:41:51.520Z,26.20
2018-11-27T21:44:26.224Z,30.60
2018-11-27T21:47:01.843Z,29.33
2018-11-27T21:49:36.775Z,25.13
2018-11-27T21:52:11.133Z,28.20
2018-11-27T21:54:45.687Z,27.93
2018-11-27T21:57:22.017Z,28.90
2018-11-27T21:59:56.336Z,30.80
2018-11-27T22:02:31.991Z,27.63
2018-11-27T22:05:07.354Z,27.10
2018-11-27T22:07:41.628Z,30.70
2018-11-27T22:10:16.902Z,24.40
2018-11-27T22:12:53.666Z,31.23
2018-11-27T22:15:29.674Z,32.80
2018-11-27T22:18:04.559Z,31.30
2018-11-27T22:20:39.116Z,36.77
2018-11-27T22:23:14.131Z,35.60
2018-11-27T22:25:49.272Z,31.07
2018-11-27T22:28:24.645Z,34.37
2018-11-27T22:30:59.216Z,31.47
2018-11-27T22:33:33.796Z,28.20
2018-11-27T22:36:08.074Z,28.20
2018-11-27T22:38:42.420Z,30.87
2018-11-27T22:41:16.911Z,32.87
2018-11-27T22:43:51.822Z,32.00
2018-11-27T22:46:27.109Z,31.50
2018-11-27T22:49:01.604Z,37.97
2018-11-27T22:51:36.863Z,31.43
2018-11-27T22:54:11.101Z,32.00
2018-11-27T22:56:45.587Z,34.07
2018-11-27T22:59:19.870Z,28.70
2018-11-27T23:01:54.396Z,37.53
2018-11-27T23:04:29.035Z,33.30
2018-11-27T23:07:04.041Z,36.10
2018-11-27T23:09:38.981Z,40.53
2018-11-27T23:12:13.224Z,33.60
2018-11-27T23:14:48.926Z,36.07
2018-11-27T23:17:23.009Z,37.50
2018-11-27T23:19:57.394Z,38.47
2018-11-27T23:22:31.663Z,35.23
2018-11-27T23:25:06.644Z,38.47
2018-11-27T23:27:42.010Z,44.60
2018-11-27T23:30:18.664Z,33.90
2018-11-27T23:32:54.310Z,31.37
2018-11-27T23:35:28.721Z,35.23
2018-11-27T23:38:02.960Z,36.30
2018-11-27T23:40:37.617Z,37.77
2018-11-27T23:43:11.917Z,39.73
2018-11-27T23:45:46.187Z,34.77
2018-11-27T23:48:20.392Z,36.83
2018-11-27T23:50:54.719Z,32.77
2018-11-27T23:53:28.968Z,40.00
2018-11-27T23:56:03.210Z,38.77
2018-11-27T23:58:37.376Z,40.17
